Time;durP1;ratioP1;P1;durP2;ratioP2;P2;SDS_P1;SDS_P2;PMS_P1;PMS_P2;Temp;Humidity;BMP_temperature;BMP_pressure;BME280_temperature;BME280_humidity;BME280_pressure;Samples;Min_cycle;Max_cycle;Signal;HPM_P1;HPM_P2
2022/04/22 00:01:29;;;;;;;10.23;6.30;;;10.60;99.90;;;;;;5052965;28;20076;-68
2022/04/22 00:03:56;;;;;;;10.38;5.50;;;10.50;99.90;;;;;;5050859;28;20121;-70
2022/04/22 00:06:23;;;;;;;11.55;5.82;;;10.50;99.90;;;;;;5051887;28;20049;-69
2022/04/22 00:08:50;;;;;;;10.90;5.78;;;10.40;99.90;;;;;;5051283;28;20115;-70
2022/04/22 00:11:32;;;;;;;17.75;6.40;;;10.50;99.90;;;;;;5052981;28;20053;-70
2022/04/22 00:14:00;;;;;;;11.63;6.30;;;10.30;99.90;;;;;;5051825;28;20540;-69
2022/04/22 00:16:30;;;;;;;12.35;7.22;;;10.30;99.90;;;;;;5052357;28;20049;-69
2022/04/22 00:18:57;;;;;;;10.38;6.10;;;10.20;99.90;;;;;;5051584;28;20409;-68
2022/04/22 00:21:24;;;;;;;11.60;6.70;;;10.30;99.90;;;;;;5052352;28;20080;-68
2022/04/22 00:23:51;;;;;;;13.88;6.80;;;10.20;99.90;;;;;;5051081;28;20052;-67
2022/04/22 00:26:19;;;;;;;10.68;6.15;;;10.20;99.90;;;;;;5052525;28;20049;-67
2022/04/22 00:28:46;;;;;;;14.25;6.13;;;10.20;99.90;;;;;;5052786;28;20048;-69
2022/04/22 00:31:13;;;;;;;12.48;7.22;;;10.20;99.90;;;;;;5050984;28;20060;-69
2022/04/22 00:33:41;;;;;;;13.13;6.40;;;10.10;99.90;;;;;;5053803;28;20095;-69
2022/04/22 00:36:08;;;;;;;11.07;6.32;;;10.10;99.90;;;;;;5056392;28;20443;-69
2022/04/22 00:38:35;;;;;;;13.35;6.40;;;10.00;99.90;;;;;;5055974;28;20562;-69
2022/04/22 00:41:02;;;;;;;12.48;6.40;;;10.00;99.90;;;;;;5055440;28;20053;-69
2022/04/22 00:43:41;;;;;;;9.32;6.13;;;9.90;99.90;;;;;;5056469;28;20509;-69
2022/04/22 00:46:07;;;;;;;11.23;5.85;;;9.80;99.90;;;;;;5055510;28;20045;-70
2022/04/22 00:48:34;;;;;;;9.50;5.88;;;9.80;99.90;;;;;;5056345;28;20497;-69
2022/04/22 00:51:04;;;;;;;10.40;6.20;;;9.70;99.90;;;;;;5054380;28;20493;-69
2022/04/22 00:53:32;;;;;;;9.45;6.35;;;9.60;99.90;;;;;;5055216;28;20414;-70
2022/04/22 00:56:01;;;;;;;8.80;5.93;;;9.60;99.90;;;;;;5056001;28;20080;-69
2022/04/22 00:58:28;;;;;;;11.68;6.65;;;9.50;99.90;;;;;;5054386;28;20089;-69
2022/04/22 01:00:55;;;;;;;9.38;6.32;;;9.50;99.90;;;;;;5056221;28;20103;-69
2022/04/22 01:03:22;;;;;;;10.32;6.10;;;9.40;99.90;;;;;;5055295;28;20053;-69
2022/04/22 01:11:23;;;;;;;12.57;7.20;;;9.30;99.90;;;;;;5054918;28;20481;-68
2022/04/22 01:13:50;;;;;;;14.20;6.60;;;9.30;99.90;;;;;;5054372;28;20088;-68
2022/04/22 01:16:17;;;;;;;11.23;5.80;;;9.30;99.90;;;;;;5054402;28;20396;-68
2022/04/22 01:18:44;;;;;;;12.82;6.57;;;9.20;99.90;;;;;;5054706;28;20091;-68
2022/04/22 01:21:12;;;;;;;12.07;7.03;;;9.20;99.90;;;;;;5053836;28;20375;-68
2022/04/22 01:23:39;;;;;;;10.95;6.30;;;9.20;99.90;;;;;;5054908;28;20052;-69
2022/04/22 01:26:07;;;;;;;14.98;6.85;;;9.10;99.90;;;;;;5053988;28;20416;-69
2022/04/22 01:28:34;;;;;;;13.23;7.03;;;9.10;99.90;;;;;;5053415;28;20421;-69
2022/04/22 01:31:02;;;;;;;10.10;5.43;;;9.10;99.90;;;;;;5053672;28;20116;-69
2022/04/22 01:33:28;;;;;;;13.02;7.18;;;9.00;99.90;;;;;;5052523;28;20045;-69
2022/04/22 01:35:55;;;;;;;13.13;6.80;;;9.00;99.90;;;;;;5052657;28;20049;-69
2022/04/22 01:38:23;;;;;;;10.32;6.10;;;9.00;99.90;;;;;;5053539;28;20644;-69
2022/04/22 01:40:51;;;;;;;11.48;6.30;;;8.90;99.90;;;;;;5053543;28;20049;-69
2022/04/22 01:43:17;;;;;;;12.70;6.00;;;8.80;99.90;;;;;;5054229;28;20058;-69
2022/04/22 01:45:45;;;;;;;14.15;7.00;;;8.80;99.90;;;;;;5052575;28;20501;-69
2022/04/22 01:48:11;;;;;;;11.98;6.55;;;8.80;99.90;;;;;;5052614;28;20427;-69
2022/04/22 01:50:38;;;;;;;12.52;6.40;;;8.70;99.90;;;;;;5054021;28;20048;-69
2022/04/22 01:53:06;;;;;;;11.27;6.50;;;8.70;99.90;;;;;;5052835;28;20053;-69
2022/04/22 01:55:35;;;;;;;7.88;5.70;;;8.60;99.90;;;;;;5053489;28;20132;-69
2022/04/22 01:58:02;;;;;;;11.75;7.00;;;8.60;99.90;;;;;;5052656;28;20053;-69
2022/04/22 02:00:29;;;;;;;11.07;6.15;;;8.60;99.90;;;;;;5052939;28;20488;-69
2022/04/22 02:02:56;;;;;;;10.05;6.22;;;8.50;99.90;;;;;;5052384;28;20496;-69
2022/04/22 02:05:22;;;;;;;8.95;6.03;;;8.50;99.90;;;;;;5054025;28;20091;-69
2022/04/22 02:07:49;;;;;;;9.77;5.78;;;8.40;99.90;;;;;;5054456;28;20445;-69
2022/04/22 02:10:16;;;;;;;10.60;6.00;;;8.40;99.90;;;;;;5053261;28;20081;-70
2022/04/22 02:12:44;;;;;;;9.73;6.65;;;8.40;99.90;;;;;;5053936;28;20466;-65
2022/04/22 02:15:14;;;;;;;10.93;6.43;;;8.40;99.90;;;;;;5051870;28;20546;-69
2022/04/22 02:17:42;;;;;;;9.77;6.32;;;8.30;99.90;;;;;;5052341;28;20052;-67
2022/04/22 02:20:11;;;;;;;11.30;6.30;;;8.30;99.90;;;;;;5052910;28;20418;-67
2022/04/22 02:22:38;;;;;;;9.35;5.55;;;8.20;99.90;;;;;;5053179;28;20136;-67
2022/04/22 02:25:06;;;;;;;13.18;6.30;;;8.30;99.90;;;;;;5052601;28;20053;-67
2022/04/22 02:30:19;;;;;;;10.13;6.07;;;8.20;99.90;;;;;;5053273;28;20124;-68
2022/04/22 02:32:46;;;;;;;13.40;5.93;;;8.10;99.90;;;;;;5054657;28;20067;-67
2022/04/22 02:35:13;;;;;;;9.30;4.80;;;8.10;99.90;;;;;;5053223;28;20044;-67
2022/04/22 02:37:40;;;;;;;8.95;5.47;;;8.10;99.90;;;;;;5053917;28;20049;-67
2022/04/22 02:40:08;;;;;;;9.55;6.13;;;8.00;99.90;;;;;;5054495;28;20080;-68
2022/04/22 02:45:29;;;;;;;10.38;5.68;;;8.00;99.90;;;;;;5052214;28;20362;-67
2022/04/22 02:47:57;;;;;;;11.52;5.63;;;8.00;99.90;;;;;;5054372;28;20063;-69
2022/04/22 02:50:24;;;;;;;10.10;5.90;;;7.90;99.90;;;;;;5053484;28;20053;-68
2022/04/22 02:52:51;;;;;;;9.55;5.60;;;7.90;99.90;;;;;;5054081;28;20106;-68
2022/04/22 02:55:18;;;;;;;9.75;5.70;;;7.90;99.90;;;;;;5051861;28;20049;-68
2022/04/22 02:57:45;;;;;;;10.60;5.65;;;7.80;99.90;;;;;;5053343;28;20518;-68
2022/04/22 03:00:14;;;;;;;9.35;5.70;;;7.90;99.90;;;;;;5052654;28;20060;-69
2022/04/22 03:02:43;;;;;;;9.57;5.93;;;7.80;99.90;;;;;;5052874;28;20053;-68
2022/04/22 03:05:10;;;;;;;10.10;5.63;;;7.80;99.90;;;;;;5053362;28;20132;-68
2022/04/22 03:07:37;;;;;;;13.23;6.60;;;7.80;99.90;;;;;;5052922;28;20061;-68
2022/04/22 03:10:05;;;;;;;12.50;6.35;;;7.80;99.90;;;;;;5053510;28;20049;-69
2022/04/22 03:12:32;;;;;;;11.30;5.70;;;7.80;99.90;;;;;;5053017;28;20071;-68
2022/04/22 03:14:59;;;;;;;9.18;5.28;;;7.70;99.90;;;;;;5051987;28;20061;-69
2022/04/22 03:17:25;;;;;;;12.60;5.55;;;7.70;99.90;;;;;;5053660;28;20114;-68
2022/04/22 03:19:54;;;;;;;12.55;5.80;;;7.70;99.90;;;;;;5052120;28;20378;-69
2022/04/22 03:22:21;;;;;;;11.27;5.30;;;7.70;99.90;;;;;;5053448;28;20051;-69
2022/04/22 03:24:48;;;;;;;10.13;5.38;;;7.70;99.90;;;;;;5052025;28;20555;-69
2022/04/22 03:27:15;;;;;;;17.52;6.65;;;7.70;99.90;;;;;;5052657;28;20091;-68
2022/04/22 03:29:42;;;;;;;8.27;5.45;;;7.70;99.90;;;;;;5052006;28;20056;-69
2022/04/22 03:32:10;;;;;;;9.02;5.63;;;7.60;99.90;;;;;;5052240;28;20091;-69
2022/04/22 03:34:37;;;;;;;9.38;5.40;;;7.60;99.90;;;;;;5052633;28;20132;-69
2022/04/22 03:37:06;;;;;;;9.15;5.90;;;7.60;99.90;;;;;;5053070;28;20056;-69
2022/04/22 03:39:33;;;;;;;9.38;5.93;;;7.50;99.90;;;;;;5053715;28;20106;-69
2022/04/22 03:42:00;;;;;;;10.80;5.65;;;7.20;99.90;;;;;;5051695;28;20045;-69
2022/04/22 03:44:27;;;;;;;12.27;6.55;;;7.50;99.90;;;;;;5053113;28;20052;-69
2022/04/22 03:46:53;;;;;;;10.68;6.00;;;7.50;99.90;;;;;;5051203;28;20052;-69
2022/04/22 03:49:20;;;;;;;11.32;6.00;;;7.40;99.90;;;;;;5052002;28;20052;-69
2022/04/22 03:51:47;;;;;;;14.90;5.72;;;7.40;99.90;;;;;;5051893;28;20055;-69
2022/04/22 03:54:18;;;;;;;11.50;6.28;;;7.40;99.90;;;;;;5051650;28;20083;-69
2022/04/22 03:59:29;;;;;;;8.13;5.57;;;7.30;99.90;;;;;;5051659;28;20489;-69
2022/04/22 04:01:57;;;;;;;9.75;5.82;;;7.30;99.90;;;;;;5052236;28;20057;-69
2022/04/22 04:04:24;;;;;;;9.48;5.35;;;7.20;99.90;;;;;;5051627;28;20181;-70
2022/04/22 04:06:51;;;;;;;8.50;5.68;;;7.20;99.90;;;;;;5051680;28;20386;-69
2022/04/22 04:17:36;;;;;;;7.53;5.00;;;7.10;99.90;;;;;;5047013;28;20584;-70
2022/04/22 04:25:33;;;;;;;8.48;5.25;;;7.40;99.90;;;;;;5047428;28;20386;-70
2022/04/22 04:28:00;;;;;;;8.55;5.20;;;7.70;99.90;;;;;;5047320;28;20057;-70
2022/04/22 04:30:27;;;;;;;10.13;5.35;;;7.50;99.90;;;;;;5050928;28;20056;-69
2022/04/22 04:32:54;;;;;;;8.80;5.38;;;8.00;99.90;;;;;;5050040;28;20052;-70
2022/04/22 04:35:21;;;;;;;9.05;4.60;;;8.00;99.90;;;;;;5050718;28;20051;-70
2022/04/22 04:37:47;;;;;;;9.38;5.07;;;7.90;99.90;;;;;;5048927;28;20048;-70
2022/04/22 04:40:14;;;;;;;6.82;4.50;;;7.90;99.90;;;;;;5050551;28;20562;-71
2022/04/22 04:42:43;;;;;;;10.68;5.47;;;8.00;99.90;;;;;;5048216;28;20054;-70
2022/04/22 04:45:10;;;;;;;9.35;4.70;;;8.00;99.90;;;;;;5049474;28;20053;-70
2022/04/22 04:47:40;;;;;;;6.90;4.10;;;7.90;99.90;;;;;;5050271;28;20051;-71
2022/04/22 04:50:08;;;;;;;7.07;4.40;;;7.80;99.90;;;;;;5050385;28;20123;-70
2022/04/22 04:52:35;;;;;;;11.02;4.80;;;7.90;99.90;;;;;;5049041;28;20088;-70
2022/04/22 04:55:02;;;;;;;8.60;4.70;;;7.80;99.90;;;;;;5048456;28;20053;-70
2022/04/22 04:57:29;;;;;;;8.63;4.50;;;7.80;99.90;;;;;;5050668;28;20049;-69
2022/04/22 04:59:57;;;;;;;7.20;3.85;;;8.20;99.90;;;;;;5048146;28;20053;-70
2022/04/22 05:02:24;;;;;;;6.68;4.70;;;8.10;99.90;;;;;;5049878;28;20049;-70
2022/04/22 05:04:51;;;;;;;6.28;4.45;;;7.90;99.90;;;;;;5049993;28;20053;-69
2022/04/22 05:07:18;;;;;;;8.18;4.28;;;7.80;99.90;;;;;;5047835;28;20160;-70
2022/04/22 05:09:45;;;;;;;8.43;4.75;;;7.70;99.90;;;;;;5048897;28;20103;-69
2022/04/22 05:12:12;;;;;;;9.15;4.20;;;7.60;99.90;;;;;;5049745;28;20122;-69
2022/04/22 05:14:39;;;;;;;8.48;4.18;;;7.50;99.90;;;;;;5050204;28;20118;-69
2022/04/22 05:17:07;;;;;;;6.85;4.28;;;7.50;99.90;;;;;;5049736;28;20057;-68
2022/04/22 05:19:34;;;;;;;6.07;4.20;;;7.60;99.90;;;;;;5051791;28;20067;-69
2022/04/22 05:22:01;;;;;;;8.45;4.15;;;7.50;99.90;;;;;;5052445;28;20053;-70
2022/04/22 05:24:28;;;;;;;6.20;4.05;;;7.50;99.90;;;;;;5052620;28;20551;-69
2022/04/22 05:26:54;;;;;;;6.85;4.10;;;7.50;99.90;;;;;;5052609;28;20064;-69
2022/04/22 05:34:52;;;;;;;9.77;3.90;;;7.60;99.90;;;;;;5051832;28;20048;-68
2022/04/22 05:37:19;;;;;;;6.70;3.80;;;7.60;99.90;;;;;;5053340;28;20041;-68
2022/04/22 05:39:45;;;;;;;9.80;3.60;;;7.70;99.90;;;;;;5052850;28;20051;-69
2022/04/22 05:42:12;;;;;;;6.97;3.78;;;7.70;99.90;;;;;;5052313;28;20138;-69
2022/04/22 05:44:39;;;;;;;6.45;3.72;;;7.80;99.90;;;;;;5052658;28;20447;-70
2022/04/22 05:47:08;;;;;;;5.13;3.58;;;7.80;99.90;;;;;;5037344;28;20125;-69
2022/04/22 05:49:35;;;;;;;9.00;4.25;;;7.90;99.90;;;;;;5053049;28;20098;-69
2022/04/22 05:52:02;;;;;;;4.97;2.78;;;8.00;99.90;;;;;;5053028;28;20049;-70
2022/04/22 05:54:28;;;;;;;6.90;3.33;;;8.10;99.90;;;;;;5050874;28;20057;-70
2022/04/22 05:56:55;;;;;;;5.82;2.92;;;8.30;99.90;;;;;;5053430;28;20053;-69
2022/04/22 05:59:22;;;;;;;5.88;3.05;;;8.50;99.90;;;;;;5049743;28;20103;-69
2022/04/22 06:01:49;;;;;;;7.97;3.65;;;8.80;99.90;;;;;;5063777;28;20582;-69
2022/04/22 06:04:17;;;;;;;5.70;3.08;;;8.90;99.90;;;;;;5051921;28;20065;-69
2022/04/22 06:06:44;;;;;;;6.90;3.13;;;9.10;99.90;;;;;;5054023;28;20149;-69
2022/04/22 06:11:55;;;;;;;5.35;3.00;;;9.60;99.90;;;;;;5033966;28;20053;-69
2022/04/22 06:14:23;;;;;;;4.93;2.88;;;9.70;99.90;;;;;;5038119;28;20053;-70
2022/04/22 06:16:50;;;;;;;8.65;3.13;;;10.00;99.90;;;;;;5053076;28;20513;-69
2022/04/22 06:19:18;;;;;;;4.40;2.60;;;10.30;99.90;;;;;;5042905;28;20050;-69
2022/04/22 06:21:45;;;;;;;6.50;2.90;;;10.60;99.90;;;;;;5050565;28;20514;-69
2022/04/22 06:24:12;;;;;;;5.18;2.83;;;11.20;99.90;;;;;;5047093;28;20452;-69
2022/04/22 06:26:39;;;;;;;7.13;2.97;;;11.40;99.90;;;;;;5053092;28;20103;-68
2022/04/22 06:29:06;;;;;;;6.72;2.50;;;11.80;99.90;;;;;;5036635;28;20398;-70
2022/04/22 06:31:35;;;;;;;4.88;2.53;;;12.40;99.90;;;;;;5036421;28;20057;-68
2022/04/22 06:34:02;;;;;;;5.10;2.30;;;13.00;99.90;;;;;;5069793;28;20118;-68
2022/04/22 06:36:32;;;;;;;3.40;2.22;;;13.60;99.90;;;;;;5053291;28;20057;-69
2022/04/22 06:38:59;;;;;;;5.28;3.47;;;14.00;99.90;;;;;;5053016;28;20053;-69
2022/04/22 06:47:11;;;;;;;5.50;2.38;;;14.80;99.90;;;;;;5006534;28;20082;-69
2022/04/22 06:49:38;;;;;;;4.75;2.83;;;15.50;99.50;;;;;;5049710;28;20397;-69
2022/04/22 06:52:07;;;;;;;3.40;2.17;;;15.70;98.20;;;;;;5052857;28;20500;-69
2022/04/22 06:54:36;;;;;;;3.90;2.35;;;16.10;97.40;;;;;;5053110;28;20048;-69
2022/04/22 06:57:04;;;;;;;6.82;2.92;;;16.30;96.30;;;;;;5053105;28;20059;-69
2022/04/22 06:59:31;;;;;;;4.18;2.13;;;16.60;96.10;;;;;;5054248;28;20049;-69
2022/04/22 07:01:58;;;;;;;7.07;2.20;;;16.50;95.50;;;;;;5051411;28;20052;-70
2022/04/22 07:04:26;;;;;;;5.80;1.98;;;16.70;94.40;;;;;;5053030;28;20409;-69
2022/04/22 07:06:53;;;;;;;16.05;2.58;;;16.90;95.10;;;;;;5053128;28;20053;-69
2022/04/22 07:09:22;;;;;;;3.70;2.40;;;17.10;94.50;;;;;;5053871;28;20059;-69
2022/04/22 07:11:51;;;;;;;4.80;2.38;;;17.30;94.20;;;;;;5053809;28;20132;-70
2022/04/22 07:14:20;;;;;;;5.40;2.10;;;17.30;93.30;;;;;;5052062;28;20512;-69
2022/04/22 07:16:48;;;;;;;3.42;1.80;;;17.30;93.40;;;;;;5053393;28;20491;-71
2022/04/22 07:19:15;;;;;;;5.53;2.65;;;17.40;93.40;;;;;;5053393;28;20053;-71
2022/04/22 07:21:42;;;;;;;4.07;2.45;;;17.60;93.10;;;;;;5053792;28;20053;-70
2022/04/22 07:24:10;;;;;;;3.80;2.13;;;17.50;92.00;;;;;;5054475;28;20455;-71
2022/04/22 07:26:41;;;;;;;3.85;2.25;;;17.90;92.30;;;;;;5051750;28;20493;-69
2022/04/22 07:29:09;;;;;;;6.75;2.70;;;18.00;91.10;;;;;;5052204;28;20061;-69
2022/04/22 07:31:37;;;;;;;6.57;2.33;;;18.10;91.20;;;;;;5052559;28;20048;-69
2022/04/22 07:34:04;;;;;;;4.13;2.10;;;18.00;90.90;;;;;;5052697;28;20075;-69
2022/04/22 07:36:31;;;;;;;4.00;2.28;;;18.20;91.20;;;;;;5052870;28;20073;-69
2022/04/22 07:38:59;;;;;;;5.63;1.73;;;18.60;90.40;;;;;;5051577;28;20511;-71
2022/04/22 07:41:30;;;;;;;12.65;2.45;;;18.70;90.90;;;;;;5051721;28;20084;-70
2022/04/22 07:46:47;;;;;;;5.57;2.47;;;19.10;89.90;;;;;;5051643;28;20547;-69
2022/04/22 07:49:15;;;;;;;3.63;2.33;;;19.50;88.30;;;;;;5053131;28;20053;-70
2022/04/22 07:51:42;;;;;;;3.35;2.00;;;19.60;87.30;;;;;;5053158;28;20057;-70
2022/04/22 07:54:09;;;;;;;4.00;2.30;;;19.40;86.80;;;;;;5052183;28;20060;-71
2022/04/22 07:56:36;;;;;;;5.45;2.20;;;19.80;86.50;;;;;;5053232;28;20060;-70
2022/04/22 07:59:05;;;;;;;3.15;2.25;;;19.80;86.40;;;;;;5058228;28;20546;-70
2022/04/22 08:01:31;;;;;;;4.15;2.20;;;19.70;83.80;;;;;;5038667;28;20053;-70
2022/04/22 08:03:59;;;;;;;3.67;1.98;;;20.00;85.50;;;;;;5032288;28;20470;-70
2022/04/22 08:06:26;;;;;;;3.95;2.05;;;20.00;85.10;;;;;;5032829;28;20041;-69
2022/04/22 08:08:53;;;;;;;6.20;2.20;;;20.00;83.30;;;;;;5032037;28;20057;-69
2022/04/22 08:11:20;;;;;;;6.18;2.33;;;20.20;83.70;;;;;;5051408;28;20547;-69
2022/04/22 08:13:47;;;;;;;4.05;2.25;;;19.80;82.70;;;;;;5051035;28;20206;-70
2022/04/22 08:16:15;;;;;;;5.63;2.95;;;20.10;83.60;;;;;;5052554;28;20091;-70
2022/04/22 08:18:42;;;;;;;4.88;2.10;;;20.30;83.00;;;;;;5052298;28;20136;-69
2022/04/22 08:21:10;;;;;;;4.80;2.15;;;20.30;82.10;;;;;;5050717;28;20118;-70
2022/04/22 08:23:37;;;;;;;6.55;2.22;;;20.50;81.80;;;;;;5052748;28;20045;-69
2022/04/22 08:26:04;;;;;;;5.55;2.42;;;20.60;81.40;;;;;;5052297;28;20060;-69
2022/04/22 08:28:31;;;;;;;5.10;2.33;;;21.00;81.60;;;;;;5050377;28;20074;-69
2022/04/22 08:30:58;;;;;;;5.40;2.33;;;21.10;80.50;;;;;;5051249;28;20493;-70
2022/04/22 08:33:27;;;;;;;4.15;2.05;;;21.30;80.10;;;;;;5051512;28;20106;-69
2022/04/22 08:35:54;;;;;;;5.25;2.17;;;21.40;79.80;;;;;;5051981;28;20132;-71
2022/04/22 08:38:20;;;;;;;4.30;2.28;;;21.50;79.70;;;;;;5047154;28;20053;-69
2022/04/22 08:40:48;;;;;;;5.00;1.90;;;21.80;79.20;;;;;;5031490;28;20095;-71
2022/04/22 08:43:16;;;;;;;8.98;2.40;;;21.50;77.60;;;;;;5046371;28;20049;-70
2022/04/22 08:45:43;;;;;;;5.32;2.22;;;21.70;78.70;;;;;;5051534;28;20115;-70
2022/04/22 08:50:56;;;;;;;6.63;2.08;;;22.20;77.30;;;;;;5048443;28;20057;-70
2022/04/22 08:53:27;;;;;;;3.28;1.70;;;21.70;75.60;;;;;;5050839;28;20049;-70
2022/04/22 08:55:57;;;;;;;7.15;2.20;;;21.90;76.40;;;;;;5055106;28;20057;-70
2022/04/22 08:58:26;;;;;;;3.35;1.73;;;22.10;73.50;;;;;;5054982;28;20049;-69
2022/04/22 09:00:54;;;;;;;2.95;1.65;;;22.30;74.70;;;;;;5054865;28;20064;-70
2022/04/22 09:03:21;;;;;;;4.32;1.55;;;22.60;75.60;;;;;;5054669;28;20048;-70
2022/04/22 09:05:48;;;;;;;5.05;2.25;;;23.30;75.30;;;;;;5056786;28;20555;-70
2022/04/22 09:08:18;;;;;;;5.28;1.92;;;23.20;73.20;;;;;;5054919;28;20094;-70
2022/04/22 09:10:44;;;;;;;3.97;2.10;;;23.40;73.40;;;;;;5054246;28;20044;-70
2022/04/22 09:13:25;;;;;;;5.60;2.25;;;23.40;72.70;;;;;;5054917;28;20079;-71
2022/04/22 09:15:52;;;;;;;6.18;2.45;;;23.20;71.50;;;;;;5053781;28;20405;-70
2022/04/22 09:18:19;;;;;;;3.30;1.92;;;23.30;72.10;;;;;;5055565;28;20057;-70
2022/04/22 09:20:48;;;;;;;3.65;1.85;;;23.00;72.00;;;;;;5055707;28;20052;-69
2022/04/22 09:23:31;;;;;;;4.18;1.90;;;23.20;72.00;;;;;;5055695;28;20041;-69
2022/04/22 09:25:58;;;;;;;7.03;2.38;;;23.30;70.60;;;;;;5053524;28;20444;-70
2022/04/22 09:28:25;;;;;;;5.53;2.25;;;23.20;72.10;;;;;;5055651;28;20098;-69
2022/04/22 09:30:59;;;;;;;5.38;2.20;;;23.40;72.50;;;;;;5055778;28;20049;-69
2022/04/22 09:33:26;;;;;;;4.45;1.95;;;23.30;70.50;;;;;;5035374;28;20049;-69
2022/04/22 09:44:17;;;;;;;5.50;2.03;;;23.70;69.70;;;;;;5071262;28;20056;-70
2022/04/22 09:46:44;;;;;;;5.90;2.00;;;23.60;69.40;;;;;;5053441;28;20049;-70
2022/04/22 09:49:11;;;;;;;4.38;1.98;;;23.30;69.20;;;;;;5055532;28;20390;-70
2022/04/22 09:51:38;;;;;;;3.28;2.15;;;23.20;69.00;;;;;;5054251;28;20098;-70
2022/04/22 09:54:09;;;;;;;5.03;2.20;;;23.20;69.30;;;;;;5053604;28;20045;-70
2022/04/22 09:56:38;;;;;;;4.47;2.10;;;23.30;69.50;;;;;;5046627;28;20110;-69
2022/04/22 09:59:23;;;;;;;4.72;2.25;;;23.60;69.50;;;;;;5054000;28;20063;-70
2022/04/22 10:01:51;;;;;;;3.92;2.00;;;23.80;69.00;;;;;;5053580;28;20091;-70
2022/04/22 10:04:19;;;;;;;5.80;2.08;;;23.80;68.70;;;;;;5053850;28;20394;-70
2022/04/22 10:06:46;;;;;;;5.50;2.20;;;24.00;68.80;;;;;;5054095;28;20053;-70
2022/04/22 10:09:16;;;;;;;4.28;2.20;;;23.70;67.50;;;;;;5053882;28;20055;-70
2022/04/22 10:11:44;;;;;;;6.43;2.10;;;23.20;68.60;;;;;;5052247;28;20049;-69
2022/04/22 10:14:11;;;;;;;4.65;2.45;;;23.40;69.40;;;;;;5053749;28;20291;-70
2022/04/22 10:16:39;;;;;;;3.55;2.15;;;23.70;69.10;;;;;;5054323;28;20126;-70
2022/04/22 10:19:07;;;;;;;5.90;2.33;;;24.00;68.90;;;;;;5053661;28;20099;-69
2022/04/22 10:21:34;;;;;;;3.95;1.90;;;23.90;67.20;;;;;;5054219;28;20049;-69
2022/04/22 10:24:01;;;;;;;5.53;2.03;;;24.00;66.50;;;;;;5053577;28;20165;-70
2022/04/22 10:26:31;;;;;;;4.65;2.35;;;23.60;66.60;;;;;;5047896;28;20045;-70
2022/04/22 10:28:58;;;;;;;3.53;2.33;;;23.60;67.60;;;;;;5051663;28;20049;-70
2022/04/22 10:31:27;;;;;;;3.88;2.50;;;23.80;67.80;;;;;;5050049;28;20114;-70
2022/04/22 10:34:06;;;;;;;5.28;2.50;;;23.90;67.90;;;;;;5051074;28;20044;-71
2022/04/22 10:36:34;;;;;;;5.50;2.50;;;24.10;66.50;;;;;;5052148;28;20451;-69
2022/04/22 10:39:01;;;;;;;4.88;2.55;;;24.40;68.60;;;;;;5052491;28;20366;-69
2022/04/22 10:41:29;;;;;;;5.60;2.35;;;24.40;67.40;;;;;;5051001;28;20501;-69
2022/04/22 10:49:37;;;;;;;4.22;2.00;;;23.90;67.10;;;;;;5050423;28;20044;-69
2022/04/22 10:52:10;;;;;;;3.63;2.28;;;24.00;67.30;;;;;;5050995;28;20143;-70
2022/04/22 10:55:12;;;;;;;4.38;2.55;;;24.00;66.70;;;;;;5051772;28;20048;-70
2022/04/22 10:57:42;;;;;;;6.47;2.55;;;24.20;66.90;;;;;;5051105;28;20133;-71
2022/04/22 11:00:30;;;;;;;6.85;2.80;;;24.00;66.40;;;;;;5056029;28;20057;-70
2022/04/22 11:03:13;;;;;;;4.22;2.35;;;24.40;66.50;;;;;;5045878;28;20056;-68
2022/04/22 11:05:44;;;;;;;4.57;2.22;;;24.20;66.10;;;;;;5048209;28;20418;-70
2022/04/22 11:08:18;;;;;;;5.47;2.53;;;24.50;66.70;;;;;;5032438;28;20116;-69
2022/04/22 11:11:23;;;;;;;3.70;2.45;;;24.20;63.40;;;;;;5049307;28;20098;-69
2022/04/22 11:13:52;;;;;;;6.40;2.88;;;24.40;65.70;;;;;;5050704;28;20136;-69
2022/04/22 11:16:32;;;;;;;6.85;3.00;;;24.30;65.30;;;;;;5051375;28;20045;-71
2022/04/22 11:19:25;;;;;;;4.93;2.50;;;24.60;63.80;;;;;;5047792;28;20053;-71
2022/04/22 11:21:53;;;;;;;4.07;2.75;;;24.10;63.40;;;;;;5024513;28;20089;-71
2022/04/22 11:24:21;;;;;;;5.20;2.60;;;24.00;65.00;;;;;;5031952;28;20056;-71
2022/04/22 11:26:49;;;;;;;6.95;2.40;;;23.90;64.60;;;;;;5040746;28;20060;-71
2022/04/22 11:29:17;;;;;;;4.22;2.40;;;24.30;64.50;;;;;;5021532;28;20069;-71
2022/04/22 11:31:57;;;;;;;7.00;3.13;;;24.40;64.70;;;;;;5051846;28;20110;-72
2022/04/22 11:34:54;;;;;;;5.38;2.38;;;24.30;64.20;;;;;;5053562;28;20088;-71
2022/04/22 11:37:22;;;;;;;6.30;2.75;;;24.70;64.40;;;;;;5049888;28;20065;-71
2022/04/22 11:39:49;;;;;;;4.25;2.38;;;24.90;64.50;;;;;;5052591;28;20570;-71
2022/04/22 11:42:17;;;;;;;5.65;3.22;;;25.20;64.70;;;;;;5052354;28;20052;-72
2022/04/22 11:44:46;;;;;;;4.20;2.80;;;24.80;62.70;;;;;;5051749;28;20135;-71
2022/04/22 11:47:13;;;;;;;5.78;2.80;;;25.00;63.60;;;;;;5051441;28;20088;-72
2022/04/22 11:49:40;;;;;;;16.17;2.63;;;24.80;63.70;;;;;;5051721;28;20170;-71
2022/04/22 11:52:08;;;;;;;4.25;2.70;;;24.90;64.40;;;;;;5051285;28;20051;-70
2022/04/22 11:54:35;;;;;;;3.20;2.40;;;24.70;62.80;;;;;;5051972;28;20053;-70
2022/04/22 11:57:06;;;;;;;6.93;2.78;;;25.00;63.40;;;;;;5051806;28;20092;-70
2022/04/22 11:59:33;;;;;;;3.80;2.47;;;24.70;63.20;;;;;;5051303;28;20382;-70
2022/04/22 12:10:18;;;;;;;4.85;2.35;;;25.30;63.90;;;;;;5052819;28;20087;-69
2022/04/22 12:12:50;;;;;;;4.40;2.88;;;25.70;63.70;;;;;;5052808;28;20044;-70
2022/04/22 12:15:19;;;;;;;4.43;2.45;;;25.90;62.00;;;;;;5050820;28;20059;-69
2022/04/22 12:17:47;;;;;;;3.92;2.50;;;25.70;61.60;;;;;;5051730;28;20482;-69
2022/04/22 12:20:15;;;;;;;7.22;3.08;;;25.40;60.60;;;;;;5050732;28;20048;-68
2022/04/22 12:22:42;;;;;;;3.58;2.58;;;25.20;61.00;;;;;;5052896;28;20064;-70
2022/04/22 12:25:11;;;;;;;5.78;3.38;;;24.80;61.20;;;;;;5051283;28;20060;-69
2022/04/22 12:27:40;;;;;;;7.57;2.83;;;25.10;62.00;;;;;;5034331;28;20160;-70
2022/04/22 12:30:09;;;;;;;4.68;2.88;;;25.00;61.80;;;;;;5053388;28;20057;-69
2022/04/22 12:32:37;;;;;;;5.50;2.72;;;25.10;61.80;;;;;;5049490;28;20064;-70
2022/04/22 12:35:13;;;;;;;4.45;2.85;;;25.20;62.20;;;;;;5054095;28;20402;-70
2022/04/22 12:37:44;;;;;;;5.78;3.00;;;25.60;63.50;;;;;;5047560;28;20367;-70
2022/04/22 12:40:13;;;;;;;5.10;2.60;;;25.70;62.50;;;;;;5037840;28;20069;-70
2022/04/22 12:42:40;;;;;;;10.32;3.20;;;25.70;62.40;;;;;;5044538;28;20069;-70
2022/04/22 12:53:42;;;;;;;6.47;3.22;;;25.50;62.20;;;;;;5039018;28;20052;-70
2022/04/22 12:56:10;;;;;;;5.28;3.47;;;25.30;62.10;;;;;;5054676;28;20057;-70
2022/04/22 12:58:51;;;;;;;5.93;3.30;;;25.50;62.00;;;;;;5036142;28;20088;-70
2022/04/22 13:01:20;;;;;;;4.22;2.95;;;25.50;62.30;;;;;;5055009;28;20076;-70
2022/04/22 13:03:47;;;;;;;5.45;3.35;;;25.60;62.30;;;;;;5055527;28;20053;-70
2022/04/22 13:06:36;;;;;;;6.90;3.30;;;25.60;62.30;;;;;;5056648;28;20098;-71
2022/04/22 13:09:03;;;;;;;6.88;3.63;;;25.90;62.70;;;;;;5055014;28;20115;-71
2022/04/22 13:11:30;;;;;;;4.70;3.63;;;26.00;63.00;;;;;;5054512;28;20408;-69
2022/04/22 13:13:56;;;;;;;4.35;3.67;;;25.60;62.30;;;;;;5055930;28;20053;-69
2022/04/22 13:16:23;;;;;;;4.22;3.15;;;25.70;62.50;;;;;;5056168;28;20440;-70
2022/04/22 13:18:50;;;;;;;4.95;3.10;;;26.00;62.60;;;;;;5054165;28;20485;-69
2022/04/22 13:21:18;;;;;;;6.45;3.13;;;26.40;62.90;;;;;;5054788;28;20134;-69
2022/04/22 13:23:45;;;;;;;5.40;3.20;;;26.30;62.40;;;;;;5054235;28;20094;-69
2022/04/22 13:26:12;;;;;;;4.72;3.60;;;25.90;61.20;;;;;;5055784;28;20100;-69
2022/04/22 13:28:39;;;;;;;9.02;3.85;;;25.70;62.00;;;;;;5054357;28;20055;-69
2022/04/22 13:31:06;;;;;;;8.73;3.60;;;25.10;62.50;;;;;;5054611;28;20472;-69
2022/04/22 13:33:34;;;;;;;7.60;3.95;;;25.50;63.10;;;;;;5055892;28;20076;-69
2022/04/22 13:36:01;;;;;;;5.38;3.67;;;24.80;62.60;;;;;;5055374;28;20413;-69
2022/04/22 13:38:30;;;;;;;7.22;3.85;;;25.30;63.30;;;;;;5052551;28;20111;-69
2022/04/22 13:40:57;;;;;;;5.85;3.58;;;25.40;62.90;;;;;;5039341;28;20458;-70
2022/04/22 13:43:26;;;;;;;6.95;3.35;;;25.40;62.00;;;;;;5045288;28;20154;-70
2022/04/22 13:54:07;;;;;;;5.68;3.70;;;25.20;62.60;;;;;;5050216;28;20127;-70
2022/04/22 13:56:34;;;;;;;5.78;3.63;;;26.10;63.10;;;;;;5051724;28;20048;-70
2022/04/22 13:59:01;;;;;;;5.68;3.67;;;26.20;62.80;;;;;;5050457;28;20095;-70
2022/04/22 14:01:28;;;;;;;6.45;3.50;;;26.60;62.40;;;;;;5052972;28;20559;-70
2022/04/22 14:03:55;;;;;;;5.00;3.40;;;27.00;61.90;;;;;;5052297;28;20045;-70
2022/04/22 14:06:22;;;;;;;5.43;3.38;;;26.30;62.00;;;;;;5050659;28;20040;-70
2022/04/22 14:08:49;;;;;;;5.82;3.90;;;26.10;62.40;;;;;;5052355;28;20049;-70
2022/04/22 14:11:18;;;;;;;8.40;3.30;;;25.80;62.00;;;;;;5052193;28;20049;-70
2022/04/22 14:13:45;;;;;;;5.95;3.83;;;26.00;62.80;;;;;;5050839;28;20053;-70
2022/04/22 14:16:13;;;;;;;7.40;3.70;;;25.70;61.80;;;;;;5051130;28;20045;-70
2022/04/22 14:18:40;;;;;;;6.70;3.95;;;26.10;62.00;;;;;;5049162;28;20134;-70
2022/04/22 14:21:07;;;;;;;5.07;4.05;;;26.00;62.10;;;;;;5051006;28;20382;-70